sensor_id;sensor_type;location;lat;lon;timestamp;pressure;altitude;pressure_sealevel;temperature;humidity
80798;BME280;70202;52.238;10.680;2024-01-30T00:00:36;101443.50;;;8.20;82.33
80798;BME280;70202;52.238;10.680;2024-01-30T00:01:36;101441.69;;;8.21;82.70
80798;BME280;70202;52.238;10.680;2024-01-30T00:02:36;101423.69;;;8.12;82.48
80798;BME280;70202;52.238;10.680;2024-01-30T00:03:37;101436.25;;;8.21;82.01
80798;BME280;70202;52.238;10.680;2024-01-30T00:04:37;101425.44;;;8.16;82.29
80798;BME280;70202;52.238;10.680;2024-01-30T00:05:38;101429.88;;;8.23;82.71
80798;BME280;70202;52.238;10.680;2024-01-30T00:06:38;101439.84;;;8.24;82.07
80798;BME280;70202;52.238;10.680;2024-01-30T00:07:38;101437.13;;;8.24;81.92
80798;BME280;70202;52.238;10.680;2024-01-30T00:08:39;101444.34;;;8.25;82.30
80798;BME280;70202;52.238;10.680;2024-01-30T00:09:39;101438.91;;;8.25;82.53
80798;BME280;70202;52.238;10.680;2024-01-30T00:10:40;101444.34;;;8.25;82.02
80798;BME280;70202;52.238;10.680;2024-01-30T00:11:40;101435.31;;;8.25;82.71
80798;BME280;70202;52.238;10.680;2024-01-30T00:12:41;101443.41;;;8.26;82.83
80798;BME280;70202;52.238;10.680;2024-01-30T00:13:41;101431.63;;;8.27;81.99
80798;BME280;70202;52.238;10.680;2024-01-30T00:14:42;101408.28;;;8.16;82.89
80798;BME280;70202;52.238;10.680;2024-01-30T00:15:43;101437.06;;;8.29;81.97
80798;BME280;70202;52.238;10.680;2024-01-30T00:16:44;101433.47;;;8.29;82.29
80798;BME280;70202;52.238;10.680;2024-01-30T00:17:44;101432.50;;;8.31;82.55
80798;BME280;70202;52.238;10.680;2024-01-30T00:18:44;101415.41;;;8.24;82.19
80798;BME280;70202;52.238;10.680;2024-01-30T00:19:46;101321.94;;;7.71;82.29
80798;BME280;70202;52.238;10.680;2024-01-30T00:20:46;101427.06;;;8.31;83.24
80798;BME280;70202;52.238;10.680;2024-01-30T00:21:47;101429.78;;;8.31;82.58
80798;BME280;70202;52.238;10.680;2024-01-30T00:22:48;101370.53;;;7.90;82.71
80798;BME280;70202;52.238;10.680;2024-01-30T00:23:49;101432.50;;;8.31;83.00
80798;BME280;70202;52.238;10.680;2024-01-30T00:24:49;101432.50;;;8.31;82.92
80798;BME280;70202;52.238;10.680;2024-01-30T00:25:50;101425.28;;;8.30;82.51
80798;BME280;70202;52.238;10.680;2024-01-30T00:26:50;101431.63;;;8.31;83.38
80798;BME280;70202;52.238;10.680;2024-01-30T00:27:51;101431.63;;;8.31;83.30
80798;BME280;70202;52.238;10.680;2024-01-30T00:28:51;101437.97;;;8.30;82.51
80798;BME280;70202;52.238;10.680;2024-01-30T00:29:52;101424.44;;;8.23;82.47
80798;BME280;70202;52.238;10.680;2024-01-30T00:30:52;101347.19;;;7.76;83.04
80798;BME280;70202;52.238;10.680;2024-01-30T00:31:52;101429.81;;;8.28;82.31
80798;BME280;70202;52.238;10.680;2024-01-30T00:32:53;101392.94;;;8.10;82.88
80798;BME280;70202;52.238;10.680;2024-01-30T00:33:54;101425.34;;;8.25;83.22
80798;BME280;70202;52.238;10.680;2024-01-30T00:34:54;101422.59;;;8.27;82.90
80798;BME280;70202;52.238;10.680;2024-01-30T00:35:55;101310.28;;;7.60;82.26
80798;BME280;70202;52.238;10.680;2024-01-30T00:36:55;101419.00;;;8.26;83.50
80798;BME280;70202;52.238;10.680;2024-01-30T00:37:55;101248.31;;;7.26;82.06
80798;BME280;70202;52.238;10.680;2024-01-30T00:38:56;101417.19;;;8.25;82.62
80798;BME280;70202;52.238;10.680;2024-01-30T00:39:56;101425.34;;;8.25;83.00
80798;BME280;70202;52.238;10.680;2024-01-30T00:40:57;101411.81;;;8.21;82.69
80798;BME280;70202;52.238;10.680;2024-01-30T00:41:57;101425.34;;;8.24;83.02
80798;BME280;70202;52.238;10.680;2024-01-30T00:42:58;101419.94;;;8.22;83.44
80798;BME280;70202;52.238;10.680;2024-01-30T00:43:58;101428.09;;;8.22;82.68
80798;BME280;70202;52.238;10.680;2024-01-30T00:44:58;101426.28;;;8.21;83.01
80798;BME280;70202;52.238;10.680;2024-01-30T00:45:59;101310.31;;;7.59;83.28
80798;BME280;70202;52.238;10.680;2024-01-30T00:46:59;101419.06;;;8.19;82.86
80798;BME280;70202;52.238;10.680;2024-01-30T00:48:00;101423.59;;;8.18;83.85
80798;BME280;70202;52.238;10.680;2024-01-30T00:49:00;101379.59;;;7.92;83.35
80798;BME280;70202;52.238;10.680;2024-01-30T00:50:00;101354.41;;;7.79;83.18
80798;BME280;70202;52.238;10.680;2024-01-30T00:51:01;101368.72;;;7.92;83.04
80798;BME280;70202;52.238;10.680;2024-01-30T00:52:01;101424.53;;;8.17;83.19
80798;BME280;70202;52.238;10.680;2024-01-30T00:53:01;101329.25;;;7.65;83.10
80798;BME280;70202;52.238;10.680;2024-01-30T00:54:02;101397.56;;;8.00;82.78
80798;BME280;70202;52.238;10.680;2024-01-30T00:55:03;101417.34;;;8.12;83.05
80798;BME280;70202;52.238;10.680;2024-01-30T00:56:04;101420.97;;;8.11;83.25
80798;BME280;70202;52.238;10.680;2024-01-30T00:57:04;101421.91;;;8.08;83.32
80798;BME280;70202;52.238;10.680;2024-01-30T00:58:05;101418.34;;;8.03;83.46
80798;BME280;70202;52.238;10.680;2024-01-30T00:59:05;101415.63;;;8.05;83.50
80798;BME280;70202;52.238;10.680;2024-01-30T01:00:08;101418.34;;;8.01;83.02
80798;BME280;70202;52.238;10.680;2024-01-30T01:01:09;101421.09;;;8.00;83.15
80798;BME280;70202;52.238;10.680;2024-01-30T01:02:09;101422.00;;;7.99;83.58
80798;BME280;70202;52.238;10.680;2024-01-30T01:03:10;101422.00;;;7.97;83.45
80798;BME280;70202;52.238;10.680;2024-01-30T01:04:10;101423.84;;;7.97;83.15
80798;BME280;70202;52.238;10.680;2024-01-30T01:05:11;101420.22;;;7.96;83.61
80798;BME280;70202;52.238;10.680;2024-01-30T01:06:11;101421.19;;;7.89;83.87
80798;BME280;70202;52.238;10.680;2024-01-30T01:07:11;101413.03;;;7.89;83.73
80798;BME280;70202;52.238;10.680;2024-01-30T01:08:12;101372.59;;;7.66;83.29
80798;BME280;70202;52.238;10.680;2024-01-30T01:09:12;101315.13;;;7.29;83.55
80798;BME280;70202;52.238;10.680;2024-01-30T01:10:13;101429.28;;;7.95;84.39
80798;BME280;70202;52.238;10.680;2024-01-30T01:11:13;101429.28;;;7.95;83.94
80798;BME280;70202;52.238;10.680;2024-01-30T01:12:14;101429.28;;;7.95;84.42
80798;BME280;70202;52.238;10.680;2024-01-30T01:13:14;101409.47;;;7.86;83.59
80798;BME280;70202;52.238;10.680;2024-01-30T01:14:15;101428.38;;;7.95;83.33
80798;BME280;70202;52.238;10.680;2024-01-30T01:15:15;101401.41;;;7.80;84.13
80798;BME280;70202;52.238;10.680;2024-01-30T01:16:16;101430.19;;;7.94;84.01
80798;BME280;70202;52.238;10.680;2024-01-30T01:17:16;101431.09;;;7.95;83.98
80798;BME280;70202;52.238;10.680;2024-01-30T01:18:18;101333.13;;;7.35;83.64
80798;BME280;70202;52.238;10.680;2024-01-30T01:19:18;101432.00;;;7.94;84.53
80798;BME280;70202;52.238;10.680;2024-01-30T01:20:19;101432.00;;;7.94;83.87
80798;BME280;70202;52.238;10.680;2024-01-30T01:21:19;101430.19;;;7.94;83.84
80798;BME280;70202;52.238;10.680;2024-01-30T01:22:20;101422.97;;;7.93;83.43
80798;BME280;70202;52.238;10.680;2024-01-30T01:23:20;101422.06;;;7.93;84.59
80798;BME280;70202;52.238;10.680;2024-01-30T01:24:20;101423.03;;;7.87;84.44
80798;BME280;70202;52.238;10.680;2024-01-30T01:25:21;101400.56;;;7.74;83.80
80798;BME280;70202;52.238;10.680;2024-01-30T01:26:21;101430.22;;;7.90;84.29
80798;BME280;70202;52.238;10.680;2024-01-30T01:27:22;101422.16;;;7.84;84.29
80798;BME280;70202;52.238;10.680;2024-01-30T01:28:22;101431.16;;;7.87;84.33
80798;BME280;70202;52.238;10.680;2024-01-30T01:29:22;101427.56;;;7.87;83.88
80798;BME280;70202;52.238;10.680;2024-01-30T01:30:28;101388.03;;;7.61;84.29
80798;BME280;70202;52.238;10.680;2024-01-30T01:31:29;101429.34;;;7.88;84.01
80798;BME280;70202;52.238;10.680;2024-01-30T01:32:29;101425.72;;;7.89;84.20
80798;BME280;70202;52.238;10.680;2024-01-30T01:33:33;101427.50;;;7.90;84.63
80798;BME280;70202;52.238;10.680;2024-01-30T01:34:33;101374.47;;;7.61;84.20
80798;BME280;70202;52.238;10.680;2024-01-30T01:35:34;101419.38;;;7.91;84.50
80798;BME280;70202;52.238;10.680;2024-01-30T01:36:35;101421.16;;;7.92;84.96
80798;BME280;70202;52.238;10.680;2024-01-30T01:37:35;101321.41;;;7.34;84.00
80798;BME280;70202;52.238;10.680;2024-01-30T01:38:36;101418.44;;;7.94;85.08
80798;BME280;70202;52.238;10.680;2024-01-30T01:39:36;101420.25;;;7.95;84.11
80798;BME280;70202;52.238;10.680;2024-01-30T01:40:37;101413.91;;;7.96;84.25
80798;BME280;70202;52.238;10.680;2024-01-30T01:41:39;101403.13;;;7.88;84.67
80798;BME280;70202;52.238;10.680;2024-01-30T01:42:40;101412.06;;;7.98;84.52
80798;BME280;70202;52.238;10.680;2024-01-30T01:43:40;101407.59;;;7.95;84.82
80798;BME280;70202;52.238;10.680;2024-01-30T01:44:40;101319.50;;;7.45;84.52
80798;BME280;70202;52.238;10.680;2024-01-30T01:45:41;101417.47;;;7.99;84.67
80798;BME280;70202;52.238;10.680;2024-01-30T01:46:41;101317.75;;;7.40;85.55
80798;BME280;70202;52.238;10.680;2024-01-30T01:47:42;101412.03;;;8.01;84.30
80798;BME280;70202;52.238;10.680;2024-01-30T01:48:43;101413.81;;;8.02;85.00
80798;BME280;70202;52.238;10.680;2024-01-30T01:49:45;101415.63;;;8.05;85.26
80798;BME280;70202;52.238;10.680;2024-01-30T01:50:45;101416.50;;;8.05;84.71
80798;BME280;70202;52.238;10.680;2024-01-30T01:51:47;101413.78;;;8.07;84.68
80798;BME280;70202;52.238;10.680;2024-01-30T01:52:48;101411.06;;;8.08;85.12
80798;BME280;70202;52.238;10.680;2024-01-30T01:53:49;101210.72;;;6.93;84.86
80798;BME280;70202;52.238;10.680;2024-01-30T01:54:50;101298.72;;;7.44;84.69
80798;BME280;70202;52.238;10.680;2024-01-30T01:55:51;101366.03;;;7.90;84.51
80798;BME280;70202;52.238;10.680;2024-01-30T01:56:53;101324.75;;;7.62;85.00
80798;BME280;70202;52.238;10.680;2024-01-30T01:57:53;101411.88;;;8.15;85.48
80798;BME280;70202;52.238;10.680;2024-01-30T01:58:54;101411.88;;;8.15;85.12
80798;BME280;70202;52.238;10.680;2024-01-30T01:59:55;101411.88;;;8.16;84.99
80798;BME280;70202;52.238;10.680;2024-01-30T02:00:56;101408.28;;;8.16;85.04
80798;BME280;70202;52.238;10.680;2024-01-30T02:01:58;101411.88;;;8.16;84.86
80798;BME280;70202;52.238;10.680;2024-01-30T02:02:59;101410.94;;;8.17;85.41
80798;BME280;70202;52.238;10.680;2024-01-30T02:04:00;101413.66;;;8.17;85.62
80798;BME280;70202;52.238;10.680;2024-01-30T02:05:01;101293.22;;;7.50;85.66
80798;BME280;70202;52.238;10.680;2024-01-30T02:06:02;101406.44;;;8.16;85.61
80798;BME280;70202;52.238;10.680;2024-01-30T02:07:03;101283.34;;;7.45;84.99
80798;BME280;70202;52.238;10.680;2024-01-30T02:08:04;101406.44;;;8.15;85.60
80798;BME280;70202;52.238;10.680;2024-01-30T02:09:05;101405.56;;;8.14;85.84
80798;BME280;70202;52.238;10.680;2024-01-30T02:10:07;101403.78;;;8.10;85.90
80798;BME280;70202;52.238;10.680;2024-01-30T02:11:07;101401.09;;;8.12;84.92
80798;BME280;70202;52.238;10.680;2024-01-30T02:12:08;101395.72;;;8.07;85.17
80798;BME280;70202;52.238;10.680;2024-01-30T02:13:08;101400.19;;;8.10;85.55
80798;BME280;70202;52.238;10.680;2024-01-30T02:14:09;101402.91;;;8.08;85.05
80798;BME280;70202;52.238;10.680;2024-01-30T02:15:13;101313.97;;;7.56;85.54
80798;BME280;70202;52.238;10.680;2024-01-30T02:16:14;101399.31;;;8.06;85.03
80798;BME280;70202;52.238;10.680;2024-01-30T02:17:15;101200.84;;;6.89;85.17
80798;BME280;70202;52.238;10.680;2024-01-30T02:18:16;101415.59;;;8.06;85.41
80798;BME280;70202;52.238;10.680;2024-01-30T02:19:16;101291.53;;;7.40;85.40
80798;BME280;70202;52.238;10.680;2024-01-30T02:20:16;101401.16;;;8.04;85.24
80798;BME280;70202;52.238;10.680;2024-01-30T02:21:18;101392.19;;;7.99;85.56
80798;BME280;70202;52.238;10.680;2024-01-30T02:22:20;101398.44;;;8.02;85.38
80798;BME280;70202;52.238;10.680;2024-01-30T02:23:24;101393.94;;;8.01;85.09
80798;BME280;70202;52.238;10.680;2024-01-30T02:24:27;101328.38;;;7.61;85.54
80798;BME280;70202;52.238;10.680;2024-01-30T02:25:35;101395.78;;;7.98;85.63
80798;BME280;70202;52.238;10.680;2024-01-30T02:26:36;101297.84;;;7.42;85.09
80798;BME280;70202;52.238;10.680;2024-01-30T02:27:36;101392.22;;;7.94;85.24
80798;BME280;70202;52.238;10.680;2024-01-30T02:28:36;101392.22;;;7.93;84.98
80798;BME280;70202;52.238;10.680;2024-01-30T02:29:37;101383.22;;;7.91;85.39
80798;BME280;70202;52.238;10.680;2024-01-30T02:30:42;101385.06;;;7.87;85.23
80798;BME280;70202;52.238;10.680;2024-01-30T02:31:43;101386.03;;;7.80;85.00
80798;BME280;70202;52.238;10.680;2024-01-30T02:32:46;101390.53;;;7.81;85.24
80798;BME280;70202;52.238;10.680;2024-01-30T02:33:46;101386.94;;;7.79;85.15
80798;BME280;70202;52.238;10.680;2024-01-30T02:34:46;101268.31;;;7.12;84.71
80798;BME280;70202;52.238;10.680;2024-01-30T02:35:47;101386.03;;;7.77;84.91
80798;BME280;70202;52.238;10.680;2024-01-30T02:36:47;101393.28;;;7.76;85.20
80798;BME280;70202;52.238;10.680;2024-01-30T02:37:48;101387.88;;;7.75;85.52
80798;BME280;70202;52.238;10.680;2024-01-30T02:38:48;101390.63;;;7.73;85.74
80798;BME280;70202;52.238;10.680;2024-01-30T02:39:49;101277.38;;;7.08;85.68
80798;BME280;70202;52.238;10.680;2024-01-30T02:40:49;101380.72;;;7.69;84.90
80798;BME280;70202;52.238;10.680;2024-01-30T02:41:50;101360.06;;;7.56;85.48
80798;BME280;70202;52.238;10.680;2024-01-30T02:42:50;101387.91;;;7.73;85.71
80798;BME280;70202;52.238;10.680;2024-01-30T02:43:51;101366.31;;;7.63;86.13
80798;BME280;70202;52.238;10.680;2024-01-30T02:44:51;101385.22;;;7.73;85.87
80798;BME280;70202;52.238;10.680;2024-01-30T02:45:52;101379.78;;;7.73;85.17
80798;BME280;70202;52.238;10.680;2024-01-30T02:46:52;101382.50;;;7.73;85.25
80798;BME280;70202;52.238;10.680;2024-01-30T02:47:54;101384.28;;;7.73;86.29
80798;BME280;70202;52.238;10.680;2024-01-30T02:48:54;101376.13;;;7.73;86.01
80798;BME280;70202;52.238;10.680;2024-01-30T02:49:55;101376.13;;;7.73;85.50
80798;BME280;70202;52.238;10.680;2024-01-30T02:50:55;101375.25;;;7.74;86.41
80798;BME280;70202;52.238;10.680;2024-01-30T02:51:56;101382.47;;;7.75;85.35
80798;BME280;70202;52.238;10.680;2024-01-30T02:52:57;101377.06;;;7.73;86.09
80798;BME280;70202;52.238;10.680;2024-01-30T02:53:57;101362.63;;;7.68;85.48
80798;BME280;70202;52.238;10.680;2024-01-30T02:54:58;101377.03;;;7.75;85.57
80798;BME280;70202;52.238;10.680;2024-01-30T02:55:58;101372.53;;;7.72;86.22
80798;BME280;70202;52.238;10.680;2024-01-30T02:56:58;101176.72;;;6.60;85.61
80798;BME280;70202;52.238;10.680;2024-01-30T02:57:59;101372.53;;;7.74;86.58
80798;BME280;70202;52.238;10.680;2024-01-30T02:58:59;101372.56;;;7.71;86.06
80798;BME280;70202;52.238;10.680;2024-01-30T03:00:00;101370.72;;;7.73;85.43
80798;BME280;70202;52.238;10.680;2024-01-30T03:01:00;101375.25;;;7.74;86.25
80798;BME280;70202;52.238;10.680;2024-01-30T03:02:00;101369.81;;;7.74;86.10
80798;BME280;70202;52.238;10.680;2024-01-30T03:03:01;101373.44;;;7.74;86.25
80798;BME280;70202;52.238;10.680;2024-01-30T03:04:02;101377.00;;;7.76;86.70
80798;BME280;70202;52.238;10.680;2024-01-30T03:05:03;101372.50;;;7.79;86.10
80798;BME280;70202;52.238;10.680;2024-01-30T03:06:06;101372.47;;;7.80;86.50
80798;BME280;70202;52.238;10.680;2024-01-30T03:07:07;101367.94;;;7.82;86.80
80798;BME280;70202;52.238;10.680;2024-01-30T03:08:08;101378.75;;;7.84;86.28
80798;BME280;70202;52.238;10.680;2024-01-30T03:09:08;101376.91;;;7.87;85.82
80798;BME280;70202;52.238;10.680;2024-01-30T03:10:09;101352.66;;;7.73;86.34
80798;BME280;70202;52.238;10.680;2024-01-30T03:11:10;101379.59;;;7.90;86.39
80798;BME280;70202;52.238;10.680;2024-01-30T03:12:10;101385.00;;;7.92;86.33
80798;BME280;70202;52.238;10.680;2024-01-30T03:13:11;101382.28;;;7.92;85.94
80798;BME280;70202;52.238;10.680;2024-01-30T03:14:11;101274.44;;;7.34;86.49
80798;BME280;70202;52.238;10.680;2024-01-30T03:15:11;101381.38;;;7.93;86.24
80798;BME280;70202;52.238;10.680;2024-01-30T03:16:12;101386.78;;;7.93;86.38
80798;BME280;70202;52.238;10.680;2024-01-30T03:17:12;101386.78;;;7.93;86.04
80798;BME280;70202;52.238;10.680;2024-01-30T03:18:13;101384.09;;;7.93;86.09
80798;BME280;70202;52.238;10.680;2024-01-30T03:19:13;101366.03;;;7.89;86.21
80798;BME280;70202;52.238;10.680;2024-01-30T03:20:14;101244.78;;;7.18;86.39
80798;BME280;70202;52.238;10.680;2024-01-30T03:21:14;101369.66;;;7.91;86.47
80798;BME280;70202;52.238;10.680;2024-01-30T03:22:14;101292.34;;;7.50;86.25
80798;BME280;70202;52.238;10.680;2024-01-30T03:23:15;101371.41;;;7.95;86.59
80798;BME280;70202;52.238;10.680;2024-01-30T03:24:15;101373.19;;;7.97;86.02
80798;BME280;70202;52.238;10.680;2024-01-30T03:25:15;101277.97;;;7.43;86.47
80798;BME280;70202;52.238;10.680;2024-01-30T03:26:16;101359.66;;;7.94;86.51
80798;BME280;70202;52.238;10.680;2024-01-30T03:27:16;101374.06;;;7.98;86.15
80798;BME280;70202;52.238;10.680;2024-01-30T03:28:17;101371.34;;;7.98;86.04
80798;BME280;70202;52.238;10.680;2024-01-30T03:29:17;101363.31;;;7.92;86.44
80798;BME280;70202;52.238;10.680;2024-01-30T03:30:17;101259.00;;;7.39;86.50
80798;BME280;70202;52.238;10.680;2024-01-30T03:31:18;101367.75;;;7.97;86.63
80798;BME280;70202;52.238;10.680;2024-01-30T03:32:18;101154.88;;;6.78;86.43
80798;BME280;70202;52.238;10.680;2024-01-30T03:33:19;101363.25;;;7.96;86.52
80798;BME280;70202;52.238;10.680;2024-01-30T03:34:19;101280.63;;;7.48;86.40
80798;BME280;70202;52.238;10.680;2024-01-30T03:35:19;101363.25;;;7.96;86.98
80798;BME280;70202;52.238;10.680;2024-01-30T03:36:20;101362.34;;;7.96;86.72
80798;BME280;70202;52.238;10.680;2024-01-30T03:37:20;101357.81;;;7.96;86.50
80798;BME280;70202;52.238;10.680;2024-01-30T03:38:20;101359.66;;;7.96;86.58
80798;BME280;70202;52.238;10.680;2024-01-30T03:39:21;101359.66;;;7.93;86.42
80798;BME280;70202;52.238;10.680;2024-01-30T03:40:21;101362.34;;;7.96;86.09
80798;BME280;70202;52.238;10.680;2024-01-30T03:41:22;101364.19;;;7.95;86.68
80798;BME280;70202;52.238;10.680;2024-01-30T03:42:22;101368.72;;;7.95;86.35
80798;BME280;70202;52.238;10.680;2024-01-30T03:43:22;101354.28;;;7.88;86.53
80798;BME280;70202;52.238;10.680;2024-01-30T03:44:23;101357.84;;;7.93;86.31
80798;BME280;70202;52.238;10.680;2024-01-30T03:45:23;101356.97;;;7.93;86.89
80798;BME280;70202;52.238;10.680;2024-01-30T03:46:23;101358.78;;;7.92;86.82
80798;BME280;70202;52.238;10.680;2024-01-30T03:47:24;101357.88;;;7.92;86.73
80798;BME280;70202;52.238;10.680;2024-01-30T03:48:25;101359.69;;;7.91;86.78
80798;BME280;70202;52.238;10.680;2024-01-30T03:49:25;101363.34;;;7.90;86.31
80798;BME280;70202;52.238;10.680;2024-01-30T03:50:26;101363.34;;;7.90;86.54
80798;BME280;70202;52.238;10.680;2024-01-30T03:51:26;101364.22;;;7.89;86.80
80798;BME280;70202;52.238;10.680;2024-01-30T03:52:27;101357.91;;;7.89;86.19
80798;BME280;70202;52.238;10.680;2024-01-30T03:53:27;101355.25;;;7.84;86.85
80798;BME280;70202;52.238;10.680;2024-01-30T03:54:27;101357.97;;;7.83;86.51
80798;BME280;70202;52.238;10.680;2024-01-30T03:55:28;101356.13;;;7.85;85.96
80798;BME280;70202;52.238;10.680;2024-01-30T03:56:28;101357.97;;;7.84;86.20
80798;BME280;70202;52.238;10.680;2024-01-30T03:57:29;101279.84;;;7.35;86.17
80798;BME280;70202;52.238;10.680;2024-01-30T03:58:29;101358.91;;;7.82;86.28
80798;BME280;70202;52.238;10.680;2024-01-30T03:59:29;101360.72;;;7.80;86.98
80798;BME280;70202;52.238;10.680;2024-01-30T04:00:30;101355.25;;;7.81;87.04
80798;BME280;70202;52.238;10.680;2024-01-30T04:01:30;101351.66;;;7.82;86.51
80798;BME280;70202;52.238;10.680;2024-01-30T04:02:30;101348.94;;;7.82;86.87
80798;BME280;70202;52.238;10.680;2024-01-30T04:03:31;101352.56;;;7.83;86.87
80798;BME280;70202;52.238;10.680;2024-01-30T04:04:31;101351.63;;;7.84;87.21
80798;BME280;70202;52.238;10.680;2024-01-30T04:05:32;101248.31;;;7.26;86.45
80798;BME280;70202;52.238;10.680;2024-01-30T04:06:32;101237.53;;;7.20;86.77
80798;BME280;70202;52.238;10.680;2024-01-30T04:07:33;101329.16;;;7.72;86.96
80798;BME280;70202;52.238;10.680;2024-01-30T04:08:33;101350.72;;;7.85;87.02
80798;BME280;70202;52.238;10.680;2024-01-30T04:09:33;101351.59;;;7.85;87.00
80798;BME280;70202;52.238;10.680;2024-01-30T04:10:34;101344.38;;;7.87;87.14
80798;BME280;70202;52.238;10.680;2024-01-30T04:11:34;101350.69;;;7.88;86.73
80798;BME280;70202;52.238;10.680;2024-01-30T04:12:35;101347.97;;;7.88;86.48
80798;BME280;70202;52.238;10.680;2024-01-30T04:13:36;101342.56;;;7.88;87.39
80798;BME280;70202;52.238;10.680;2024-01-30T04:14:38;101336.22;;;7.87;86.92
80798;BME280;70202;52.238;10.680;2024-01-30T04:15:38;101236.56;;;7.28;86.75
80798;BME280;70202;52.238;10.680;2024-01-30T04:16:39;101343.47;;;7.85;86.89
80798;BME280;70202;52.238;10.680;2024-01-30T04:17:39;101344.38;;;7.86;87.39
80798;BME280;70202;52.238;10.680;2024-01-30T04:18:40;101348.91;;;7.87;86.71
80798;BME280;70202;52.238;10.680;2024-01-30T04:19:40;101228.56;;;7.15;87.01
80798;BME280;70202;52.238;10.680;2024-01-30T04:20:41;101171.09;;;6.83;87.03
80798;BME280;70202;52.238;10.680;2024-01-30T04:21:41;101340.75;;;7.87;87.23
80798;BME280;70202;52.238;10.680;2024-01-30T04:22:45;101348.91;;;7.87;87.11
80798;BME280;70202;52.238;10.680;2024-01-30T04:23:46;101218.59;;;7.17;86.75
80798;BME280;70202;52.238;10.680;2024-01-30T04:24:47;101161.22;;;6.80;86.79
80798;BME280;70202;52.238;10.680;2024-01-30T04:25:47;101337.22;;;7.82;87.36
80798;BME280;70202;52.238;10.680;2024-01-30T04:26:47;101336.28;;;7.83;87.35
80798;BME280;70202;52.238;10.680;2024-01-30T04:27:48;101329.97;;;7.82;87.30
80798;BME280;70202;52.238;10.680;2024-01-30T04:28:48;101251.88;;;7.32;86.71
80798;BME280;70202;52.238;10.680;2024-01-30T04:29:49;101333.63;;;7.78;86.66
80798;BME280;70202;52.238;10.680;2024-01-30T04:30:49;101332.69;;;7.79;87.12
80798;BME280;70202;52.238;10.680;2024-01-30T04:31:50;101337.22;;;7.79;86.57
80798;BME280;70202;52.238;10.680;2024-01-30T04:32:50;101329.09;;;7.77;87.43
80798;BME280;70202;52.238;10.680;2024-01-30T04:33:50;101330.91;;;7.76;86.96
80798;BME280;70202;52.238;10.680;2024-01-30T04:34:51;101326.38;;;7.77;87.54
80798;BME280;70202;52.238;10.680;2024-01-30T04:35:51;101327.31;;;7.78;87.55
80798;BME280;70202;52.238;10.680;2024-01-30T04:36:52;101146.81;;;6.73;86.65
80798;BME280;70202;52.238;10.680;2024-01-30T04:37:52;101335.38;;;7.81;87.76
80798;BME280;70202;52.238;10.680;2024-01-30T04:38:53;101330.84;;;7.81;87.87
80798;BME280;70202;52.238;10.680;2024-01-30T04:39:53;101304.84;;;7.63;87.44
80798;BME280;70202;52.238;10.680;2024-01-30T04:40:54;101239.25;;;7.29;87.33
80798;BME280;70202;52.238;10.680;2024-01-30T04:41:54;101250.97;;;7.30;87.35
80798;BME280;70202;52.238;10.680;2024-01-30T04:42:55;101338.94;;;7.86;86.99
80798;BME280;70202;52.238;10.680;2024-01-30T04:43:55;101329.03;;;7.83;87.97
80798;BME280;70202;52.238;10.680;2024-01-30T04:44:56;101337.13;;;7.88;87.50
80798;BME280;70202;52.238;10.680;2024-01-30T04:45:56;101334.44;;;7.86;87.13
80798;BME280;70202;52.238;10.680;2024-01-30T04:46:56;101231.09;;;7.32;87.40
80798;BME280;70202;52.238;10.680;2024-01-30T04:47:59;101336.19;;;7.92;88.13
80798;BME280;70202;52.238;10.680;2024-01-30T04:48:59;101331.63;;;7.94;87.07
80798;BME280;70202;52.238;10.680;2024-01-30T04:50:00;101238.19;;;7.42;87.62
80798;BME280;70202;52.238;10.680;2024-01-30T04:51:01;101335.22;;;7.96;87.98
80798;BME280;70202;52.238;10.680;2024-01-30T04:52:03;101339.72;;;7.97;87.98
80798;BME280;70202;52.238;10.680;2024-01-30T04:53:03;101320.75;;;7.94;87.38
80798;BME280;70202;52.238;10.680;2024-01-30T04:54:04;101222.94;;;7.35;87.67
80798;BME280;70202;52.238;10.680;2024-01-30T04:55:04;101328.84;;;8.00;87.88
80798;BME280;70202;52.238;10.680;2024-01-30T04:56:05;101330.66;;;8.01;88.19
80798;BME280;70202;52.238;10.680;2024-01-30T04:57:06;101142.97;;;6.97;87.33
80798;BME280;70202;52.238;10.680;2024-01-30T04:58:12;101329.72;;;8.04;87.13
80798;BME280;70202;52.238;10.680;2024-01-30T04:59:12;101247.03;;;7.60;87.19
80798;BME280;70202;52.238;10.680;2024-01-30T05:00:13;101263.22;;;7.67;87.74
80798;BME280;70202;52.238;10.680;2024-01-30T05:01:17;101325.16;;;8.06;87.88
80798;BME280;70202;52.238;10.680;2024-01-30T05:02:17;101334.19;;;8.08;87.76
80798;BME280;70202;52.238;10.680;2024-01-30T05:03:19;101335.06;;;8.10;87.93
80798;BME280;70202;52.238;10.680;2024-01-30T05:04:20;101334.13;;;8.11;87.99
80798;BME280;70202;52.238;10.680;2024-01-30T05:05:20;101322.44;;;8.06;88.42
80798;BME280;70202;52.238;10.680;2024-01-30T05:06:25;101247.94;;;7.62;87.68
80798;BME280;70202;52.238;10.680;2024-01-30T05:07:26;101325.13;;;8.09;87.37
80798;BME280;70202;52.238;10.680;2024-01-30T05:08:26;101323.28;;;8.11;88.03
80798;BME280;70202;52.238;10.680;2024-01-30T05:09:27;101326.06;;;8.06;87.25
80798;BME280;70202;52.238;10.680;2024-01-30T05:10:27;101336.78;;;8.15;88.02
80798;BME280;70202;52.238;10.680;2024-01-30T05:11:28;101321.53;;;8.08;87.68
80798;BME280;70202;52.238;10.680;2024-01-30T05:12:29;101333.19;;;8.16;87.87
80798;BME280;70202;52.238;10.680;2024-01-30T05:13:30;101334.06;;;8.17;88.02
80798;BME280;70202;52.238;10.680;2024-01-30T05:14:31;101332.25;;;8.17;88.34
80798;BME280;70202;52.238;10.680;2024-01-30T05:15:31;101339.47;;;8.18;87.17
80798;BME280;70202;52.238;10.680;2024-01-30T05:16:31;101320.63;;;8.06;87.73
80798;BME280;70202;52.238;10.680;2024-01-30T05:17:32;101335.84;;;8.21;87.46